Forside
METAR-TAF:

METAR-TAF

Lufthavne :

Abidjan International Airport

Abidjan, Elfenbenskysten

Breddekreds: 05-15N, længdekreds: 003-56W, højde: 7 m

Aktuelle vejr

Denne rapport blev lavet for 17 minutter siden, kl. 02:30 UTC
Vind 2 kt fra varierende retninger
Temperatur 24°C
Fugtighed 100%
Tryk 1016 hPa
Sigt: 8000 m
Spredte skyer i en højde af 1200 ft
Brudte skyer i en højde af 3000 ft

METAR: DIAP 160230Z VRB02KT 8000 SCT012 BKN030 24/24 Q1016 NOSIG

Tid: 02:47 (02:47 UTC)

Vejrudsigter

Denne rapport blev lavet for 3 timer og 47 minutter siden, kl. 23:00 UTC
Foreløbig gælder fra 16 på 00 UTC til 17 på 06 UTC
Vind 6 kt fra sydvest
Sigt: 8000 m
Spredte skyer i en højde af 1200 ft
Sandsynlighed 30%
fra 16 på 05 UTC til 16 på 07 UTC
Sigt: 4000 m
dis
Midlertidig
fra 16 på 08 UTC til 16 på 12 UTC
Brudte skyer i en højde af 1200 ft
ændring
fra 16 på 10 UTC til 16 på 13 UTC
Vind 12 kt fra sydvest

TAF: DIAP 152300Z 1600/1706 23006KT 8000 SCT012 PROB30 1605/1607 4000 BR TEMPO 1608/1612 BKN012 BECMG 1610/1613 22012KT

Vejrobservationer og prognoser fra mere end 4000 lufthavne (METAR og TAF).

De gule og røde prikker repræsenterer de meteorologiske stationer.

Flyt musen over at se navnet på stationen.

Så klik over at se vejr observationer og prognoser.

At skifte det kort: Klik på de grønne knapper med et sort kors for at zoome ind; på den grønne knap med en bindestreg for at zoome ud; eller på de grønne pile for tilstødende kort.


METAR-TAF: